Time;durP1;ratioP1;P1;durP2;ratioP2;P2;SDS_P1;SDS_P2;PMS_P1;PMS_P2;Temp;Humidity;BMP_temperature;BMP_pressure;BME280_temperature;BME280_humidity;BME280_pressure;Samples;Min_cycle;Max_cycle;Signal;HPM_P1;HPM_P2
2021/04/05 00:00:48;;;;;;;;;;;;;;;;;;1478082;40;7125;-62
2021/04/05 00:01:52;;;;;;;;;;;;;;;;;;1478896;40;7040;-62
2021/04/05 00:02:55;;;;;;;;;;;;;;;;;;1479049;40;8466;-61
2021/04/05 00:03:57;;;;;;;;;;;;;;;;;;1478861;40;7858;-62
2021/04/05 00:04:59;;;;;;;;;;;;;;;;;;1479141;40;7135;-61
2021/04/05 00:06:01;;;;;;;;;;;;;;;;;;1478846;40;7027;-61
2021/04/05 00:07:03;;;;;;;;;;;;;;;;;;1479114;40;6987;-62
2021/04/05 00:08:06;;;;;;;;;;;;;;;;;;1478380;40;7008;-62
2021/04/05 00:09:08;;;;;;;;;;;;;;;;;;1478895;40;7027;-61
2021/04/05 00:10:31;;;;;;;;;;;;;;;;;;1478744;40;7070;-62
2021/04/05 00:11:33;;;;;;;;;;;;;;;;;;1478574;40;7189;-62
2021/04/05 00:12:35;;;;;;;;;;;;;;;;;;1478589;40;7943;-61
2021/04/05 00:13:39;;;;;;;;;;;;;;;;;;1479054;40;6992;-62
2021/04/05 00:14:42;;;;;;;;;;;;;;;;;;1479260;40;7036;-61
2021/04/05 00:15:45;;;;;;;;;;;;;;;;;;1479081;40;7123;-62
2021/04/05 00:16:47;;;;;;;;;;;;;;;;;;1478800;40;7027;-62
2021/04/05 00:17:49;;;;;;;;;;;;;;;;;;1478591;40;7917;-62
2021/04/05 00:18:52;;;;;;;;;;;;;;;;;;1478644;40;7241;-62
2021/04/05 00:19:54;;;;;;;;;;;;;;;;;;1478263;40;7023;-62
2021/04/05 00:21:16;;;;;;;;;;;;;;;;;;1478822;40;7012;-60
2021/04/05 00:22:18;;;;;;;;;;;;;;;;;;1477995;40;6991;-62
2021/04/05 00:23:21;;;;;;;;;;;;;;;;;;1478757;40;7118;-62
2021/04/05 00:24:23;;;;;;;;;;;;;;;;;;1478300;40;6991;-62
2021/04/05 00:25:25;;;;;;;;;;;;;;;;;;1477685;40;7032;-61
2021/04/05 00:26:27;;;;;;;;;;;;;;;;;;1478752;40;7926;-60
2021/04/05 00:27:29;;;;;;;;;;;;;;;;;;1478763;40;7039;-62
2021/04/05 00:28:32;;;;;;;;;;;;;;;;;;1478984;40;7106;-62
2021/04/05 00:29:34;;;;;;;;;;;;;;;;;;1478955;40;7039;-61
2021/04/05 00:30:38;;;;;;;;;;;;;;;;;;1478171;40;6987;-61
2021/04/05 00:31:40;;;;;;;;;;;;;;;;;;1478253;40;7039;-62
2021/04/05 00:32:46;;;;;;;;;;;;;;;;;;1478781;40;7883;-62
2021/04/05 00:33:48;;;;;;;;;;;;;;;;;;1479000;40;7911;-61
2021/04/05 00:34:50;;;;;;;;;;;;;;;;;;1479121;40;7109;-62
2021/04/05 00:35:52;;;;;;;;;;;;;;;;;;1479161;40;7125;-62
2021/04/05 00:36:54;;;;;;;;;;;;;;;;;;1478896;40;7227;-62
2021/04/05 00:37:56;;;;;;;;;;;;;;;;;;1478520;40;7031;-62
2021/04/05 00:38:58;;;;;;;;;;;;;;;;;;1479400;40;7078;-62
2021/04/05 00:40:00;;;;;;;;;;;;;;;;;;1477912;40;7061;-61
2021/04/05 00:41:13;;;;;;;;;;;;;;;;;;1478876;40;7000;-61
2021/04/05 00:42:17;;;;;;;;;;;;;;;;;;1479022;40;7944;-62
2021/04/05 00:43:19;;;;;;;;;;;;;;;;;;1478901;40;7853;-61
2021/04/05 00:44:21;;;;;;;;;;;;;;;;;;1478941;40;7019;-62
2021/04/05 00:45:23;;;;;;;;;;;;;;;;;;1478848;40;7003;-62
2021/04/05 00:46:26;;;;;;;;;;;;;;;;;;1478933;40;7070;-62
2021/04/05 00:47:27;;;;;;;;;;;;;;;;;;1478879;40;7008;-62
2021/04/05 00:48:30;;;;;;;;;;;;;;;;;;1479164;40;6991;-61
2021/04/05 00:49:32;;;;;;;;;;;;;;;;;;1479322;40;6992;-62
2021/04/05 00:50:34;;;;;;;;;;;;;;;;;;1479364;40;7108;-61
2021/04/05 00:51:36;;;;;;;;;;;;;;;;;;1480134;40;7008;-62
2021/04/05 00:52:38;;;;;;;;;;;;;;;;;;1478769;40;7048;-60
2021/04/05 00:53:42;;;;;;;;;;;;;;;;;;1479402;40;7039;-62
2021/04/05 00:54:45;;;;;;;;;;;;;;;;;;1479093;40;7079;-62
2021/04/05 00:55:50;;;;;;;;;;;;;;;;;;1479086;40;7031;-62
2021/04/05 00:56:52;;;;;;;;;;;;;;;;;;1479399;40;7148;-62
2021/04/05 00:57:56;;;;;;;;;;;;;;;;;;1479279;40;8135;-62
2021/04/05 00:58:58;;;;;;;;;;;;;;;;;;1479533;40;7024;-62
2021/04/05 01:00:01;;;;;;;;;;;;;;;;;;1478914;40;6992;-61
2021/04/05 01:01:07;;;;;;;;;;;;;;;;;;1479065;40;6991;-62
2021/04/05 01:02:10;;;;;;;;;;;;;;;;;;1479453;40;7942;-62
2021/04/05 01:03:14;;;;;;;;;;;;;;;;;;1478561;40;7019;-62
2021/04/05 01:04:16;;;;;;;;;;;;;;;;;;1479251;40;7141;-62
2021/04/05 01:05:18;;;;;;;;;;;;;;;;;;1479491;40;7209;-62
2021/04/05 01:06:23;;;;;;;;;;;;;;;;;;1479025;40;7174;-61
2021/04/05 01:07:24;;;;;;;;;;;;;;;;;;1479188;40;7000;-62
2021/04/05 01:08:27;;;;;;;;;;;;;;;;;;1479994;40;7027;-62
2021/04/05 01:09:28;;;;;;;;;;;;;;;;;;1483326;40;6996;-62
2021/04/05 01:10:32;;;;;;;;;;;;;;;;;;1483415;40;6999;-62
2021/04/05 01:11:34;;;;;;;;;;;;;;;;;;1483248;40;7023;-61
2021/04/05 01:12:37;;;;;;;;;;;;;;;;;;1479631;40;7934;-62
2021/04/05 01:13:39;;;;;;;;;;;;;;;;;;1479404;40;6999;-62
2021/04/05 01:14:41;;;;;;;;;;;;;;;;;;1479140;40;7039;-62
2021/04/05 01:15:43;;;;;;;;;;;;;;;;;;1479179;40;7060;-61
2021/04/05 01:16:45;;;;;;;;;;;;;;;;;;1480043;40;7124;-61
2021/04/05 01:17:48;;;;;;;;;;;;;;;;;;1483103;40;7015;-62
2021/04/05 01:18:50;;;;;;;;;;;;;;;;;;1482787;40;6991;-61
2021/04/05 01:19:52;;;;;;;;;;;;;;;;;;1482894;40;7137;-62
2021/04/05 01:20:54;;;;;;;;;;;;;;;;;;1483000;40;6999;-62
2021/04/05 01:21:56;;;;;;;;;;;;;;;;;;1482856;40;7023;-62
2021/04/05 01:22:59;;;;;;;;;;;;;;;;;;1480592;40;7087;-62
2021/04/05 01:24:01;;;;;;;;;;;;;;;;;;1479255;40;7159;-62
2021/04/05 01:25:11;;;;;;;;;;;;;;;;;;1479058;40;7008;-62
2021/04/05 01:26:13;;;;;;;;;;;;;;;;;;1479021;40;7039;-61
2021/04/05 01:27:15;;;;;;;;;;;;;;;;;;1478825;40;7055;-62
2021/04/05 01:28:17;;;;;;;;;;;;;;;;;;1482805;40;6996;-62
2021/04/05 01:29:19;;;;;;;;;;;;;;;;;;1483366;40;7923;-62
2021/04/05 01:30:27;;;;;;;;;;;;;;;;;;1482731;40;7003;-62
2021/04/05 01:31:31;;;;;;;;;;;;;;;;;;1477823;40;7034;-61
2021/04/05 01:32:33;;;;;;;;;;;;;;;;;;1478972;40;6991;-62
2021/04/05 01:33:37;;;;;;;;;;;;;;;;;;1479076;40;7001;-62
2021/04/05 01:34:39;;;;;;;;;;;;;;;;;;1479730;40;6999;-62
2021/04/05 01:35:43;;;;;;;;;;;;;;;;;;1483393;40;7012;-62
2021/04/05 01:36:45;;;;;;;;;;;;;;;;;;1483023;40;7000;-61
2021/04/05 01:37:47;;;;;;;;;;;;;;;;;;1481111;40;7023;-62
2021/04/05 01:38:51;;;;;;;;;;;;;;;;;;1479283;40;7035;-62
2021/04/05 01:39:53;;;;;;;;;;;;;;;;;;1478738;40;7113;-62
2021/04/05 01:40:58;;;;;;;;;;;;;;;;;;1479049;40;7044;-61
2021/04/05 01:42:00;;;;;;;;;;;;;;;;;;1481889;40;7007;-62
2021/04/05 01:43:02;;;;;;;;;;;;;;;;;;1483026;40;7055;-62
2021/04/05 01:44:04;;;;;;;;;;;;;;;;;;1483058;40;7031;-62
2021/04/05 01:45:06;;;;;;;;;;;;;;;;;;1482145;40;7109;-62
2021/04/05 01:46:10;;;;;;;;;;;;;;;;;;1482676;40;6999;-62
2021/04/05 01:47:12;;;;;;;;;;;;;;;;;;1483102;40;7023;-62
2021/04/05 01:48:14;;;;;;;;;;;;;;;;;;1483054;40;7016;-62
2021/04/05 01:49:17;;;;;;;;;;;;;;;;;;1483050;40;7027;-62
2021/04/05 01:50:20;;;;;;;;;;;;;;;;;;1483061;40;7011;-62
2021/04/05 01:51:23;;;;;;;;;;;;;;;;;;1478647;40;7910;-61
2021/04/05 01:52:25;;;;;;;;;;;;;;;;;;1479132;40;7027;-62
2021/04/05 01:53:28;;;;;;;;;;;;;;;;;;1479175;40;7918;-62
2021/04/05 01:54:32;;;;;;;;;;;;;;;;;;1479322;40;7143;-62
2021/04/05 01:55:36;;;;;;;;;;;;;;;;;;1479219;40;7012;-62
2021/04/05 01:56:38;;;;;;;;;;;;;;;;;;1479203;40;7004;-61
2021/04/05 01:57:40;;;;;;;;;;;;;;;;;;1478598;40;7012;-62
2021/04/05 01:58:44;;;;;;;;;;;;;;;;;;1478892;40;7007;-62
2021/04/05 01:59:45;;;;;;;;;;;;;;;;;;1478939;40;6992;-62
2021/04/05 02:00:48;;;;;;;;;;;;;;;;;;1478904;40;6999;-62
2021/04/05 02:01:50;;;;;;;;;;;;;;;;;;1479121;40;8464;-62
2021/04/05 02:02:53;;;;;;;;;;;;;;;;;;1479067;40;7155;-62
2021/04/05 02:03:57;;;;;;;;;;;;;;;;;;1482873;40;6987;-62
2021/04/05 02:04:59;;;;;;;;;;;;;;;;;;1482841;40;7117;-62
2021/04/05 02:06:04;;;;;;;;;;;;;;;;;;1480062;40;7222;-62
2021/04/05 02:07:06;;;;;;;;;;;;;;;;;;1474315;40;7157;-61
2021/04/05 02:08:08;;;;;;;;;;;;;;;;;;1478458;40;7035;-61
2021/04/05 02:09:10;;;;;;;;;;;;;;;;;;1482494;40;7149;-61
2021/04/05 02:10:16;;;;;;;;;;;;;;;;;;1482819;40;7916;-62
2021/04/05 02:11:23;;;;;;;;;;;;;;;;;;1479091;40;6996;-62
2021/04/05 02:12:25;;;;;;;;;;;;;;;;;;1478322;40;6999;-62
2021/04/05 02:13:28;;;;;;;;;;;;;;;;;;1478329;40;7031;-62
2021/04/05 02:14:30;;;;;;;;;;;;;;;;;;1478423;40;7952;-62
2021/04/05 02:15:33;;;;;;;;;;;;;;;;;;1481488;40;7281;-63
2021/04/05 02:16:36;;;;;;;;;;;;;;;;;;1482475;40;7199;-62
2021/04/05 02:17:38;;;;;;;;;;;;;;;;;;1480307;40;7035;-61
2021/04/05 02:18:40;;;;;;;;;;;;;;;;;;1479228;40;6991;-62
2021/04/05 02:19:44;;;;;;;;;;;;;;;;;;1478573;40;7220;-61
2021/04/05 02:20:48;;;;;;;;;;;;;;;;;;1478742;40;7000;-62
2021/04/05 02:21:52;;;;;;;;;;;;;;;;;;1482011;40;7035;-61
2021/04/05 02:22:54;;;;;;;;;;;;;;;;;;1481194;40;6991;-62
2021/04/05 02:24:05;;;;;;;;;;;;;;;;;;1478977;40;7888;-62
2021/04/05 02:25:11;;;;;;;;;;;;;;;;;;1482322;40;7027;-63
2021/04/05 02:26:16;;;;;;;;;;;;;;;;;;1480836;40;8326;-61
2021/04/05 02:27:18;;;;;;;;;;;;;;;;;;1478013;40;7925;-62
2021/04/05 02:28:20;;;;;;;;;;;;;;;;;;1479110;40;7039;-62
2021/04/05 02:29:22;;;;;;;;;;;;;;;;;;1478874;40;7394;-62
2021/04/05 02:30:28;;;;;;;;;;;;;;;;;;1478252;40;7000;-61
2021/04/05 02:31:32;;;;;;;;;;;;;;;;;;1478191;40;7111;-61
2021/04/05 02:32:39;;;;;;;;;;;;;;;;;;1478724;40;7008;-62
2021/04/05 02:33:43;;;;;;;;;;;;;;;;;;1478771;40;8014;-61
2021/04/05 02:34:45;;;;;;;;;;;;;;;;;;1479285;40;6992;-62
2021/04/05 02:35:47;;;;;;;;;;;;;;;;;;1479504;40;7128;-61
2021/04/05 02:36:50;;;;;;;;;;;;;;;;;;1479253;40;7120;-62
2021/04/05 02:37:54;;;;;;;;;;;;;;;;;;1479905;40;7067;-61
2021/04/05 02:38:57;;;;;;;;;;;;;;;;;;1483625;40;7117;-61
2021/04/05 02:40:00;;;;;;;;;;;;;;;;;;1483578;40;7932;-61
2021/04/05 02:41:02;;;;;;;;;;;;;;;;;;1483872;40;8050;-61
2021/04/05 02:42:04;;;;;;;;;;;;;;;;;;1483730;40;7056;-61
2021/04/05 02:43:06;;;;;;;;;;;;;;;;;;1483534;40;7004;-61
2021/04/05 02:44:09;;;;;;;;;;;;;;;;;;1483315;40;7007;-61
2021/04/05 02:45:12;;;;;;;;;;;;;;;;;;1483564;40;7860;-61
2021/04/05 02:46:17;;;;;;;;;;;;;;;;;;1483222;40;7128;-61
2021/04/05 02:47:19;;;;;;;;;;;;;;;;;;1483582;40;6999;-61
2021/04/05 02:48:22;;;;;;;;;;;;;;;;;;1491014;39;6999;-61
2021/04/05 02:49:25;;;;;;;;;;;;;;;;;;1490826;39;7210;-61
2021/04/05 02:50:29;;;;;;;;;;;;;;;;;;1483391;40;7027;-62
2021/04/05 02:51:32;;;;;;;;;;;;;;;;;;1483237;40;7027;-61
2021/04/05 02:52:36;;;;;;;;;;;;;;;;;;1483487;40;7031;-60
2021/04/05 02:53:43;;;;;;;;;;;;;;;;;;1483468;40;7008;-62
2021/04/05 02:54:46;;;;;;;;;;;;;;;;;;1483436;40;6991;-61
2021/04/05 02:55:48;;;;;;;;;;;;;;;;;;1483363;40;7008;-62
2021/04/05 02:56:51;;;;;;;;;;;;;;;;;;1483185;40;7046;-61
2021/04/05 02:57:54;;;;;;;;;;;;;;;;;;1483295;40;8006;-61
2021/04/05 02:58:57;;;;;;;;;;;;;;;;;;1483415;40;7000;-61
2021/04/05 03:00:00;;;;;;;;;;;;;;;;;;1483482;40;7124;-61
2021/04/05 03:01:02;;;;;;;;;;;;;;;;;;1483082;40;7915;-61
2021/04/05 03:02:04;;;;;;;;;;;;;;;;;;1483330;40;7232;-62
2021/04/05 03:03:07;;;;;;;;;;;;;;;;;;1483263;40;6991;-61
2021/04/05 03:04:09;;;;;;;;;;;;;;;;;;1482933;40;7982;-61
2021/04/05 03:05:12;;;;;;;;;;;;;;;;;;1482906;40;6991;-62
2021/04/05 03:06:19;;;;;;;;;;;;;;;;;;1483174;40;7208;-61
2021/04/05 03:07:23;;;;;;;;;;;;;;;;;;1483273;40;7188;-61
2021/04/05 03:08:25;;;;;;;;;;;;;;;;;;1480838;40;6995;-61
2021/04/05 03:09:27;;;;;;;;;;;;;;;;;;1483312;40;7044;-62
2021/04/05 03:10:34;;;;;;;;;;;;;;;;;;1483312;40;6991;-61
2021/04/05 03:11:39;;;;;;;;;;;;;;;;;;1483285;40;7027;-61
2021/04/05 03:12:42;;;;;;;;;;;;;;;;;;1479500;40;6991;-61
2021/04/05 03:13:44;;;;;;;;;;;;;;;;;;1478835;40;9233;-62
2021/04/05 03:14:47;;;;;;;;;;;;;;;;;;1480937;40;7019;-62
2021/04/05 03:15:49;;;;;;;;;;;;;;;;;;1478968;40;7979;-61
2021/04/05 03:16:52;;;;;;;;;;;;;;;;;;1478910;40;7000;-61
2021/04/05 03:17:59;;;;;;;;;;;;;;;;;;1478871;40;8000;-61
2021/04/05 03:19:02;;;;;;;;;;;;;;;;;;1480885;40;7027;-61
2021/04/05 03:20:07;;;;;;;;;;;;;;;;;;1483212;40;8878;-61
2021/04/05 03:21:12;;;;;;;;;;;;;;;;;;1482762;40;6991;-61
2021/04/05 03:22:15;;;;;;;;;;;;;;;;;;1479074;40;7008;-62
2021/04/05 03:23:21;;;;;;;;;;;;;;;;;;1478332;40;7040;-61
2021/04/05 03:24:23;;;;;;;;;;;;;;;;;;1479245;40;7898;-62
2021/04/05 03:25:26;;;;;;;;;;;;;;;;;;1481192;40;7071;-61
2021/04/05 03:26:28;;;;;;;;;;;;;;;;;;1478563;40;7020;-61
2021/04/05 03:27:30;;;;;;;;;;;;;;;;;;1478939;40;7112;-61
2021/04/05 03:28:32;;;;;;;;;;;;;;;;;;1479204;40;7007;-61
2021/04/05 03:29:36;;;;;;;;;;;;;;;;;;1479023;40;7027;-62
2021/04/05 03:30:50;;;;;;;;;;;;;;;;;;1478450;40;7171;-62
2021/04/05 03:31:54;;;;;;;;;;;;;;;;;;1478694;40;6999;-61
2021/04/05 03:33:16;;;;;;;;;;;;;;;;;;1479472;40;7011;-61
2021/04/05 03:34:23;;;;;;;;;;;;;;;;;;1478997;40;7038;-62
2021/04/05 03:35:34;;;;;;;;;;;;;;;;;;1479552;40;8734;-62
2021/04/05 03:36:38;;;;;;;;;;;;;;;;;;1479175;40;7117;-62
2021/04/05 03:37:43;;;;;;;;;;;;;;;;;;1481092;40;7889;-62
2021/04/05 03:38:45;;;;;;;;;;;;;;;;;;1479505;40;7011;-62
2021/04/05 03:39:48;;;;;;;;;;;;;;;;;;1479249;40;7026;-62
2021/04/05 03:40:50;;;;;;;;;;;;;;;;;;1479502;40;7130;-62
2021/04/05 03:42:00;;;;;;;;;;;;;;;;;;1479051;40;6992;-61
2021/04/05 03:43:07;;;;;;;;;;;;;;;;;;1478716;40;7923;-62
2021/04/05 03:44:18;;;;;;;;;;;;;;;;;;1479347;40;7035;-61
2021/04/05 03:45:28;;;;;;;;;;;;;;;;;;1483465;40;7010;-61
2021/04/05 03:46:33;;;;;;;;;;;;;;;;;;1479035;40;7023;-62
2021/04/05 03:47:37;;;;;;;;;;;;;;;;;;1479350;40;7044;-62
2021/04/05 03:48:53;;;;;;;;;;;;;;;;;;1479140;40;7032;-62
2021/04/05 03:50:02;;;;;;;;;;;;;;;;;;1478996;40;6995;-62
2021/04/05 03:51:06;;;;;;;;;;;;;;;;;;1475570;40;7020;-62
2021/04/05 03:52:14;;;;;;;;;;;;;;;;;;1478503;40;7124;-62
2021/04/05 03:53:22;;;;;;;;;;;;;;;;;;1479125;40;7951;-61
2021/04/05 03:54:26;;;;;;;;;;;;;;;;;;1479334;40;8114;-62
2021/04/05 03:55:31;;;;;;;;;;;;;;;;;;1479302;40;7035;-62
2021/04/05 03:56:38;;;;;;;;;;;;;;;;;;1478959;40;7000;-61
2021/04/05 03:57:44;;;;;;;;;;;;;;;;;;1479452;40;7935;-63
2021/04/05 03:58:47;;;;;;;;;;;;;;;;;;1479214;40;7020;-61
2021/04/05 03:59:53;;;;;;;;;;;;;;;;;;1479109;40;6996;-62
2021/04/05 04:01:01;;;;;;;;;;;;;;;;;;1479298;40;7026;-61
2021/04/05 04:02:05;;;;;;;;;;;;;;;;;;1481806;40;7015;-62
2021/04/05 04:03:10;;;;;;;;;;;;;;;;;;1483382;40;7958;-62
2021/04/05 04:04:26;;;;;;;;;;;;;;;;;;1481780;40;7132;-62
2021/04/05 04:05:35;;;;;;;;;;;;;;;;;;1479069;40;7008;-62
2021/04/05 04:06:53;;;;;;;;;;;;;;;;;;1479341;40;6991;-62
2021/04/05 04:08:16;;;;;;;;;;;;;;;;;;1479244;40;7027;-62
2021/04/05 04:09:19;;;;;;;;;;;;;;;;;;1479321;40;7131;-62
2021/04/05 04:10:25;;;;;;;;;;;;;;;;;;1479625;40;7000;-62
2021/04/05 04:11:29;;;;;;;;;;;;;;;;;;1479387;40;8920;-62
2021/04/05 04:12:33;;;;;;;;;;;;;;;;;;1479080;40;7012;-61
2021/04/05 04:13:41;;;;;;;;;;;;;;;;;;1478878;40;7935;-62
2021/04/05 04:14:45;;;;;;;;;;;;;;;;;;1479297;40;8584;-61
2021/04/05 04:15:51;;;;;;;;;;;;;;;;;;1486154;39;7036;-62
2021/04/05 04:16:54;;;;;;;;;;;;;;;;;;1485832;39;7432;-61
2021/04/05 04:17:58;;;;;;;;;;;;;;;;;;1478928;40;7923;-61
2021/04/05 04:19:05;;;;;;;;;;;;;;;;;;1483187;40;6999;-62
2021/04/05 04:20:13;;;;;;;;;;;;;;;;;;1482969;40;7999;-61
2021/04/05 04:21:16;;;;;;;;;;;;;;;;;;1482410;40;6992;-61
2021/04/05 04:22:18;;;;;;;;;;;;;;;;;;1478912;40;7126;-61
2021/04/05 04:23:20;;;;;;;;;;;;;;;;;;1478862;40;7945;-61
2021/04/05 04:24:22;;;;;;;;;;;;;;;;;;1484656;40;7945;-61
2021/04/05 04:25:24;;;;;;;;;;;;;;;;;;1486653;40;6991;-61
2021/04/05 04:26:31;;;;;;;;;;;;;;;;;;1482938;40;7905;-62
2021/04/05 04:27:33;;;;;;;;;;;;;;;;;;1482877;40;7046;-62
2021/04/05 04:28:35;;;;;;;;;;;;;;;;;;1483505;40;7027;-62
2021/04/05 04:29:38;;;;;;;;;;;;;;;;;;1483276;40;7203;-61
2021/04/05 04:30:41;;;;;;;;;;;;;;;;;;1482727;40;7019;-61
2021/04/05 04:31:43;;;;;;;;;;;;;;;;;;1482743;40;7019;-61
2021/04/05 04:32:45;;;;;;;;;;;;;;;;;;1483610;40;6991;-62
2021/04/05 04:33:48;;;;;;;;;;;;;;;;;;1479989;40;7014;-62
2021/04/05 04:34:51;;;;;;;;;;;;;;;;;;1479842;40;8015;-61
2021/04/05 04:35:54;;;;;;;;;;;;;;;;;;1479472;40;7043;-62
2021/04/05 04:37:01;;;;;;;;;;;;;;;;;;1483195;40;7071;-62
2021/04/05 04:38:04;;;;;;;;;;;;;;;;;;1480210;40;6999;-61
2021/04/05 04:39:06;;;;;;;;;;;;;;;;;;1478690;40;7058;-61
2021/04/05 04:40:08;;;;;;;;;;;;;;;;;;1479083;40;7108;-61
2021/04/05 04:41:10;;;;;;;;;;;;;;;;;;1478478;40;7019;-61
2021/04/05 04:42:13;;;;;;;;;;;;;;;;;;1479212;40;6999;-61
2021/04/05 04:43:15;;;;;;;;;;;;;;;;;;1479165;40;7035;-62
2021/04/05 04:44:17;;;;;;;;;;;;;;;;;;1479202;40;7027;-61
2021/04/05 04:45:19;;;;;;;;;;;;;;;;;;1479039;40;7031;-61
2021/04/05 04:46:21;;;;;;;;;;;;;;;;;;1479524;40;7027;-61
2021/04/05 04:47:23;;;;;;;;;;;;;;;;;;1479499;40;6999;-61
2021/04/05 04:48:25;;;;;;;;;;;;;;;;;;1483053;40;7118;-62
2021/04/05 04:49:27;;;;;;;;;;;;;;;;;;1482817;40;7027;-62
2021/04/05 04:50:29;;;;;;;;;;;;;;;;;;1483255;40;7195;-62
2021/04/05 04:51:32;;;;;;;;;;;;;;;;;;1482998;40;7033;-61
2021/04/05 04:52:34;;;;;;;;;;;;;;;;;;1483303;40;7844;-61
2021/04/05 04:53:36;;;;;;;;;;;;;;;;;;1491045;39;7293;-61
2021/04/05 04:54:38;;;;;;;;;;;;;;;;;;1491041;39;6999;-61
2021/04/05 04:55:40;;;;;;;;;;;;;;;;;;1483488;40;7043;-61
2021/04/05 04:56:43;;;;;;;;;;;;;;;;;;1483624;40;7148;-62
2021/04/05 04:57:45;;;;;;;;;;;;;;;;;;1478916;40;7182;-61
2021/04/05 04:58:48;;;;;;;;;;;;;;;;;;1479176;40;7036;-61
2021/04/05 04:59:49;;;;;;;;;;;;;;;;;;1479100;40;7000;-61
2021/04/05 05:00:51;;;;;;;;;;;;;;;;;;1479121;40;7000;-62
2021/04/05 05:01:54;;;;;;;;;;;;;;;;;;1479250;40;7112;-61
2021/04/05 05:02:57;;;;;;;;;;;;;;;;;;1479051;40;7000;-61
2021/04/05 05:04:11;;;;;;;;;;;;;;;;;;1479447;40;7027;-61
2021/04/05 05:05:15;;;;;;;;;;;;;;;;;;1479029;40;7124;-61
2021/04/05 05:06:20;;;;;;;;;;;;;;;;;;1479082;40;7039;-61
2021/04/05 05:07:24;;;;;;;;;;;;;;;;;;1479338;40;7000;-61
2021/04/05 05:08:26;;;;;;;;;;;;;;;;;;1480584;40;7210;-62
2021/04/05 05:09:28;;;;;;;;;;;;;;;;;;1483743;40;7039;-62
2021/04/05 05:10:31;;;;;;;;;;;;;;;;;;1483523;40;7039;-62
2021/04/05 05:11:34;;;;;;;;;;;;;;;;;;1483216;40;7036;-61
2021/04/05 05:12:37;;;;;;;;;;;;;;;;;;1480160;40;7003;-62
2021/04/05 05:13:39;;;;;;;;;;;;;;;;;;1478988;40;6996;-61
2021/04/05 05:14:41;;;;;;;;;;;;;;;;;;1479370;40;7047;-61
2021/04/05 05:15:44;;;;;;;;;;;;;;;;;;1479028;40;6992;-61
2021/04/05 05:16:47;;;;;;;;;;;;;;;;;;1478836;40;7032;-62
2021/04/05 05:17:49;;;;;;;;;;;;;;;;;;1479686;40;7000;-61
2021/04/05 05:18:53;;;;;;;;;;;;;;;;;;1482842;40;7215;-62
2021/04/05 05:19:56;;;;;;;;;;;;;;;;;;1482923;40;7123;-61
2021/04/05 05:21:02;;;;;;;;;;;;;;;;;;1482918;40;6999;-61
2021/04/05 05:22:05;;;;;;;;;;;;;;;;;;1481637;40;7364;-61
2021/04/05 05:23:08;;;;;;;;;;;;;;;;;;1480035;40;7000;-61
2021/04/05 05:24:13;;;;;;;;;;;;;;;;;;1478547;40;7079;-62
2021/04/05 05:25:17;;;;;;;;;;;;;;;;;;1479063;40;7007;-61
2021/04/05 05:26:22;;;;;;;;;;;;;;;;;;1478786;40;7013;-62
2021/04/05 05:27:26;;;;;;;;;;;;;;;;;;1479312;40;7035;-62
2021/04/05 05:28:28;;;;;;;;;;;;;;;;;;1479670;40;6992;-61
2021/04/05 05:29:31;;;;;;;;;;;;;;;;;;1479419;40;6991;-60
2021/04/05 05:30:34;;;;;;;;;;;;;;;;;;1482592;40;7211;-61
2021/04/05 05:31:38;;;;;;;;;;;;;;;;;;1482679;40;7000;-61
2021/04/05 05:32:40;;;;;;;;;;;;;;;;;;1478663;40;8071;-61
2021/04/05 05:33:42;;;;;;;;;;;;;;;;;;1478457;40;7346;-61
2021/04/05 05:34:45;;;;;;;;;;;;;;;;;;1479024;40;7008;-62
2021/04/05 05:35:51;;;;;;;;;;;;;;;;;;1478993;40;7000;-60
2021/04/05 05:36:53;;;;;;;;;;;;;;;;;;1479002;40;7008;-62
2021/04/05 05:38:03;;;;;;;;;;;;;;;;;;1480565;40;7939;-61
2021/04/05 05:39:05;;;;;;;;;;;;;;;;;;1483354;40;6991;-61
2021/04/05 05:40:09;;;;;;;;;;;;;;;;;;1483695;40;6992;-61
2021/04/05 05:41:29;;;;;;;;;;;;;;;;;;1483254;40;6991;-61
2021/04/05 05:42:53;;;;;;;;;;;;;;;;;;1483241;40;7307;-61
2021/04/05 05:44:02;;;;;;;;;;;;;;;;;;1483212;40;7019;-61
2021/04/05 05:45:04;;;;;;;;;;;;;;;;;;1483309;40;7930;-61
2021/04/05 05:46:06;;;;;;;;;;;;;;;;;;1483542;40;6991;-61
2021/04/05 05:47:30;;;;;;;;;;;;;;;;;;1483622;40;7910;-62
2021/04/05 05:48:51;;;;;;;;;;;;;;;;;;1480906;40;7142;-61
2021/04/05 05:50:11;;;;;;;;;;;;;;;;;;1478960;40;7927;-61
2021/04/05 05:51:26;;;;;;;;;;;;;;;;;;1479278;40;7036;-61
2021/04/05 05:52:40;;;;;;;;;;;;;;;;;;1479031;40;7000;-62
2021/04/05 05:53:48;;;;;;;;;;;;;;;;;;1479036;40;7896;-62
2021/04/05 05:54:49;;;;;;;;;;;;;;;;;;1479308;40;7020;-62
2021/04/05 05:56:06;;;;;;;;;;;;;;;;;;1478819;40;6999;-61
2021/04/05 05:57:27;;;;;;;;;;;;;;;;;;1478859;40;6999;-62
2021/04/05 05:58:34;;;;;;;;;;;;;;;;;;1479047;40;7007;-61
2021/04/05 05:59:47;;;;;;;;;;;;;;;;;;1478839;40;7023;-61
2021/04/05 06:00:53;;;;;;;;;;;;;;;;;;1479332;40;7019;-61
2021/04/05 06:02:05;;;;;;;;;;;;;;;;;;1478900;40;8121;-61
2021/04/05 06:03:10;;;;;;;;;;;;;;;;;;1479131;40;7012;-61
2021/04/05 06:04:27;;;;;;;;;;;;;;;;;;1478462;40;7052;-61
2021/04/05 06:05:35;;;;;;;;;;;;;;;;;;1479077;40;6995;-61
2021/04/05 06:06:37;;;;;;;;;;;;;;;;;;1478656;40;7100;-61
2021/04/05 06:07:58;;;;;;;;;;;;;;;;;;1479455;40;7031;-61
2021/04/05 06:09:27;;;;;;;;;;;;;;;;;;1482803;40;7115;-61
2021/04/05 06:10:32;;;;;;;;;;;;;;;;;;1483705;40;7112;-61
2021/04/05 06:11:42;;;;;;;;;;;;;;;;;;1483664;40;7031;-62
2021/04/05 06:13:03;;;;;;;;;;;;;;;;;;1479304;40;7992;-61
2021/04/05 06:14:22;;;;;;;;;;;;;;;;;;1479093;40;7284;-61
2021/04/05 06:15:31;;;;;;;;;;;;;;;;;;1479271;40;6991;-62
2021/04/05 06:16:33;;;;;;;;;;;;;;;;;;1479413;40;7927;-61
2021/04/05 06:17:41;;;;;;;;;;;;;;;;;;1479336;40;7043;-61
2021/04/05 06:18:53;;;;;;;;;;;;;;;;;;1479432;40;7035;-61
2021/04/05 06:20:18;;;;;;;;;;;;;;;;;;1479365;40;7008;-62
2021/04/05 06:21:23;;;;;;;;;;;;;;;;;;1478993;40;7000;-61
2021/04/05 06:22:34;;;;;;;;;;;;;;;;;;1483085;40;7107;-61
2021/04/05 06:23:36;;;;;;;;;;;;;;;;;;1479001;40;7944;-61
2021/04/05 06:24:49;;;;;;;;;;;;;;;;;;1479175;40;7189;-61
2021/04/05 06:25:58;;;;;;;;;;;;;;;;;;1479539;40;7035;-62
2021/04/05 06:27:12;;;;;;;;;;;;;;;;;;1479149;40;7250;-61
2021/04/05 06:28:21;;;;;;;;;;;;;;;;;;1479648;40;7000;-61
2021/04/05 06:29:29;;;;;;;;;;;;;;;;;;1479384;40;7008;-60
2021/04/05 06:30:31;;;;;;;;;;;;;;;;;;1478265;40;6999;-62
2021/04/05 06:31:48;;;;;;;;;;;;;;;;;;1478056;40;7035;-61
2021/04/05 06:33:06;;;;;;;;;;;;;;;;;;1481315;40;7030;-62
2021/04/05 06:34:26;;;;;;;;;;;;;;;;;;1483891;40;7000;-62
2021/04/05 06:35:43;;;;;;;;;;;;;;;;;;1484336;40;7903;-61
2021/04/05 06:37:05;;;;;;;;;;;;;;;;;;1483545;40;7027;-62
2021/04/05 06:38:27;;;;;;;;;;;;;;;;;;1480333;40;7904;-62
2021/04/05 06:39:31;;;;;;;;;;;;;;;;;;1483462;40;6991;-62
2021/04/05 06:40:37;;;;;;;;;;;;;;;;;;1483768;40;7055;-61
2021/04/05 06:41:39;;;;;;;;;;;;;;;;;;1483605;40;7004;-61
2021/04/05 06:42:59;;;;;;;;;;;;;;;;;;1483993;40;7868;-61
2021/04/05 06:44:19;;;;;;;;;;;;;;;;;;1483373;40;7918;-61
2021/04/05 06:45:24;;;;;;;;;;;;;;;;;;1483744;40;7165;-62
2021/04/05 06:46:45;;;;;;;;;;;;;;;;;;1483323;40;7001;-62
2021/04/05 06:47:52;;;;;;;;;;;;;;;;;;1479488;40;6999;-62
2021/04/05 06:49:20;;;;;;;;;;;;;;;;;;1480084;40;7015;-62
2021/04/05 06:50:31;;;;;;;;;;;;;;;;;;1477898;40;6999;-62
2021/04/05 06:51:36;;;;;;;;;;;;;;;;;;1483434;40;7108;-62
2021/04/05 06:52:38;;;;;;;;;;;;;;;;;;1483384;40;7120;-61
2021/04/05 06:53:52;;;;;;;;;;;;;;;;;;1479531;40;7039;-62
2021/04/05 06:54:56;;;;;;;;;;;;;;;;;;1479562;40;7224;-62
2021/04/05 06:56:02;;;;;;;;;;;;;;;;;;1479281;40;7128;-61
2021/04/05 06:57:23;;;;;;;;;;;;;;;;;;1479277;40;7848;-61
2021/04/05 06:58:39;;;;;;;;;;;;;;;;;;1479053;40;7239;-61
2021/04/05 06:59:51;;;;;;;;;;;;;;;;;;1479528;40;7196;-61
2021/04/05 07:01:08;;;;;;;;;;;;;;;;;;1479228;40;8030;-61
2021/04/05 07:02:28;;;;;;;;;;;;;;;;;;1479409;40;6999;-61
2021/04/05 07:03:33;;;;;;;;;;;;;;;;;;1479569;40;7875;-61
2021/04/05 07:04:38;;;;;;;;;;;;;;;;;;1479780;40;7139;-61
2021/04/05 07:05:49;;;;;;;;;;;;;;;;;;1479634;40;6992;-61
2021/04/05 07:06:54;;;;;;;;;;;;;;;;;;1479624;40;7040;-61
2021/04/05 07:08:18;;;;;;;;;;;;;;;;;;1479184;40;7042;-62
2021/04/05 07:09:36;;;;;;;;;;;;;;;;;;1479050;40;7136;-62
2021/04/05 07:10:44;;;;;;;;;;;;;;;;;;1479226;40;7062;-60
2021/04/05 07:11:55;;;;;;;;;;;;;;;;;;1479717;40;7031;-61
2021/04/05 07:13:08;;;;;;;;;;;;;;;;;;1479096;40;9759;-61
2021/04/05 07:14:27;;;;;;;;;;;;;;;;;;1478915;40;8859;-62
2021/04/05 07:15:38;;;;;;;;;;;;;;;;;;1479313;40;7036;-61
2021/04/05 07:16:40;;;;;;;;;;;;;;;;;;1479518;40;6991;-61
2021/04/05 07:17:50;;;;;;;;;;;;;;;;;;1482807;40;7527;-62
2021/04/05 07:19:07;;;;;;;;;;;;;;;;;;1479091;40;7031;-62
2021/04/05 07:20:20;;;;;;;;;;;;;;;;;;1479067;40;7975;-62
2021/04/05 07:21:28;;;;;;;;;;;;;;;;;;1480433;40;6992;-62
2021/04/05 07:22:45;;;;;;;;;;;;;;;;;;1478730;40;7026;-62
2021/04/05 07:24:14;;;;;;;;;;;;;;;;;;1479077;40;7027;-61
2021/04/05 07:25:25;;;;;;;;;;;;;;;;;;1482927;40;6992;-61
2021/04/05 07:26:36;;;;;;;;;;;;;;;;;;1482985;40;7019;-61
2021/04/05 07:27:47;;;;;;;;;;;;;;;;;;1478692;40;7121;-61
2021/04/05 07:29:00;;;;;;;;;;;;;;;;;;1479381;40;6995;-62
2021/04/05 07:30:15;;;;;;;;;;;;;;;;;;1479042;40;7012;-62
2021/04/05 07:31:19;;;;;;;;;;;;;;;;;;1478700;40;7979;-62
2021/04/05 07:32:29;;;;;;;;;;;;;;;;;;1479453;40;7960;-61
2021/04/05 07:33:31;;;;;;;;;;;;;;;;;;1479584;40;7113;-61
2021/04/05 07:34:53;;;;;;;;;;;;;;;;;;1479530;40;7000;-61
2021/04/05 07:36:04;;;;;;;;;;;;;;;;;;1479633;40;7490;-62
2021/04/05 07:37:18;;;;;;;;;;;;;;;;;;1479132;40;7971;-61